SIA179 WMKP-WSSS
Flight info
| Callsign | SIA179 |
|---|---|
| Flight time | 1h 8m |
| Altitude | 37000 |
| Route | BOGUK1B ANBIK Y507 VBA A464 VKL Y507 MAKNA Y511 TOPOR A464 ARAMA ARAMA1B |
| Aircraft | B738/M-SDE2E3FGHIRWXY/LB1 |
Departure
| Time | 2026-05-05 04:19 |
|---|---|
| Airport | Penang International Airport (WMKP) |
Arrival
| Time | 2026-05-05 05:28 |
|---|---|
| Airport | Singapore Changi Airport (WSSS) |
| Time | Latitude | Longitude | Altitude | Speed | Heading |
|---|---|---|---|---|---|
| 2026-05-05 03:52 | 5.29356 | 100.26779 | 21 ft | 0 kts | 311° |
| 2026-05-05 04:08 | 5.29349 | 100.26786 | 21 ft | 4 kts | 312° |
| 2026-05-05 04:08 | 5.29331 | 100.26806 | 23 ft | 4 kts | 312° |
| 2026-05-05 04:08 | 5.29314 | 100.26825 | 21 ft | 2 kts | 312° |
| 2026-05-05 04:09 | 5.29296 | 100.26840 | 22 ft | 4 kts | 350° |
| 2026-05-05 04:09 | 5.29274 | 100.26834 | 22 ft | 4 kts | 40° |
| 2026-05-05 04:09 | 5.29265 | 100.26825 | 21 ft | 1 kts | 42° |
| 2026-05-05 04:09 | 5.29264 | 100.26825 | 21 ft | 0 kts | 42° |
| 2026-05-05 04:12 | 5.29286 | 100.26845 | 21 ft | 9 kts | 42° |
| 2026-05-05 04:12 | 5.29346 | 100.26899 | 24 ft | 11 kts | 42° |
| 2026-05-05 04:12 | 5.29388 | 100.26979 | 24 ft | 9 kts | 111° |
| 2026-05-05 04:12 | 5.29363 | 100.27014 | 23 ft | 9 kts | 129° |
| 2026-05-05 04:13 | 5.29340 | 100.27065 | 22 ft | 8 kts | 89° |
| 2026-05-05 04:13 | 5.29375 | 100.27116 | 24 ft | 11 kts | 44° |
| 2026-05-05 04:13 | 5.29439 | 100.27174 | 23 ft | 14 kts | 42° |
| 2026-05-05 04:13 | 5.29521 | 100.27249 | 23 ft | 17 kts | 42° |
| 2026-05-05 04:14 | 5.29614 | 100.27334 | 21 ft | 18 kts | 42° |
| 2026-05-05 04:14 | 5.29705 | 100.27416 | 21 ft | 17 kts | 42° |
| 2026-05-05 04:14 | 5.29788 | 100.27492 | 21 ft | 16 kts | 41° |
| 2026-05-05 04:14 | 5.29867 | 100.27562 | 21 ft | 15 kts | 41° |
| 2026-05-05 04:15 | 5.29939 | 100.27627 | 24 ft | 13 kts | 42° |
| 2026-05-05 04:15 | 5.30006 | 100.27688 | 22 ft | 13 kts | 42° |
| 2026-05-05 04:15 | 5.30066 | 100.27746 | 23 ft | 12 kts | 45° |
| 2026-05-05 04:15 | 5.30135 | 100.27813 | 22 ft | 16 kts | 45° |
| 2026-05-05 04:16 | 5.30221 | 100.27899 | 22 ft | 20 kts | 45° |
| 2026-05-05 04:16 | 5.30325 | 100.28002 | 23 ft | 22 kts | 44° |
| 2026-05-05 04:16 | 5.30432 | 100.28108 | 21 ft | 21 kts | 43° |
| 2026-05-05 04:16 | 5.30539 | 100.28205 | 21 ft | 20 kts | 42° |
| 2026-05-05 04:17 | 5.30638 | 100.28295 | 21 ft | 19 kts | 42° |
| 2026-05-05 04:17 | 5.30730 | 100.28379 | 21 ft | 17 kts | 42° |
| 2026-05-05 04:17 | 5.30814 | 100.28455 | 21 ft | 16 kts | 42° |
| 2026-05-05 04:17 | 5.30888 | 100.28528 | 21 ft | 14 kts | 56° |
| 2026-05-05 04:18 | 5.30889 | 100.28615 | 22 ft | 12 kts | 120° |
| 2026-05-05 04:18 | 5.30843 | 100.28667 | 24 ft | 8 kts | 133° |
| 2026-05-05 04:18 | 5.30802 | 100.28666 | 24 ft | 6 kts | 219° |
| 2026-05-05 04:18 | 5.30731 | 100.28603 | 24 ft | 18 kts | 221° |
| 2026-05-05 04:19 | 5.30624 | 100.28507 | 25 ft | 36 kts | 223° |
| 2026-05-05 04:19 | 5.30241 | 100.28162 | 22 ft | 110 kts | 222° |
| 2026-05-05 04:19 | 5.29519 | 100.27503 | 53 ft | 165 kts | 222° |
| 2026-05-05 04:19 | 5.28684 | 100.26713 | 743 ft | 167 kts | 225° |
| 2026-05-05 04:20 | 5.27765 | 100.25955 | 1462 ft | 176 kts | 207° |
| 2026-05-05 04:20 | 5.26545 | 100.25746 | 1939 ft | 197 kts | 169° |
| 2026-05-05 04:20 | 5.25208 | 100.26242 | 2572 ft | 197 kts | 160° |
| 2026-05-05 04:20 | 5.23933 | 100.26730 | 3422 ft | 202 kts | 157° |
| 2026-05-05 04:21 | 5.22546 | 100.27313 | 3639 ft | 231 kts | 157° |
| 2026-05-05 04:21 | 5.20984 | 100.27999 | 3911 ft | 258 kts | 156° |
| 2026-05-05 04:21 | 5.19289 | 100.28713 | 4482 ft | 269 kts | 157° |
| 2026-05-05 04:21 | 5.17534 | 100.29426 | 5239 ft | 274 kts | 158° |
| 2026-05-05 04:22 | 5.15760 | 100.30137 | 6049 ft | 275 kts | 158° |
| 2026-05-05 04:22 | 5.13969 | 100.30851 | 6813 ft | 279 kts | 158° |
| 2026-05-05 04:22 | 5.12150 | 100.31574 | 7552 ft | 282 kts | 158° |
| 2026-05-05 04:22 | 5.10308 | 100.32307 | 8264 ft | 286 kts | 157° |
| 2026-05-05 04:23 | 5.08471 | 100.33037 | 8962 ft | 290 kts | 157° |
| 2026-05-05 04:23 | 5.06661 | 100.33931 | 9626 ft | 292 kts | 141° |
| 2026-05-05 04:23 | 5.05362 | 100.35478 | 10285 ft | 294 kts | 117° |
| 2026-05-05 04:23 | 5.04695 | 100.37485 | 10486 ft | 314 kts | 102° |
| 2026-05-05 04:24 | 5.04247 | 100.39733 | 10640 ft | 335 kts | 100° |
| 2026-05-05 04:24 | 5.03824 | 100.42065 | 10808 ft | 352 kts | 100° |
| 2026-05-05 04:24 | 5.03381 | 100.44523 | 11176 ft | 362 kts | 100° |
| 2026-05-05 04:25 | 5.02453 | 100.49510 | 12457 ft | 364 kts | 100° |
| 2026-05-05 04:25 | 5.01973 | 100.52021 | 13018 ft | 368 kts | 100° |
| 2026-05-05 04:25 | 5.01485 | 100.54554 | 13574 ft | 372 kts | 101° |
| 2026-05-05 04:25 | 5.00988 | 100.57117 | 14141 ft | 375 kts | 101° |
| 2026-05-05 04:26 | 5.00487 | 100.59699 | 14713 ft | 379 kts | 101° |
| 2026-05-05 04:26 | 4.99987 | 100.62271 | 15268 ft | 382 kts | 101° |
| 2026-05-05 04:26 | 4.99477 | 100.64897 | 15785 ft | 386 kts | 101° |
| 2026-05-05 04:26 | 4.98961 | 100.67553 | 16306 ft | 389 kts | 101° |
| 2026-05-05 04:27 | 4.98439 | 100.70236 | 16836 ft | 392 kts | 101° |
| 2026-05-05 04:27 | 4.97914 | 100.72933 | 17340 ft | 395 kts | 101° |
| 2026-05-05 04:27 | 4.97381 | 100.75651 | 17830 ft | 399 kts | 102° |
| 2026-05-05 04:27 | 4.96378 | 100.78253 | 18261 ft | 404 kts | 121° |
| 2026-05-05 04:28 | 4.94545 | 100.80394 | 18737 ft | 408 kts | 139° |
| 2026-05-05 04:28 | 4.92138 | 100.81912 | 19202 ft | 413 kts | 155° |
| 2026-05-05 04:28 | 4.89348 | 100.82667 | 19631 ft | 418 kts | 169° |
| 2026-05-05 04:28 | 4.86498 | 100.83118 | 20035 ft | 421 kts | 170° |
| 2026-05-05 04:29 | 4.83574 | 100.83540 | 20425 ft | 424 kts | 170° |
| 2026-05-05 04:29 | 4.80638 | 100.83962 | 20828 ft | 427 kts | 170° |
| 2026-05-05 04:29 | 4.77683 | 100.84399 | 21235 ft | 429 kts | 170° |
| 2026-05-05 04:29 | 4.74724 | 100.84850 | 21609 ft | 432 kts | 170° |
| 2026-05-05 04:30 | 4.71740 | 100.85314 | 21933 ft | 435 kts | 169° |
| 2026-05-05 04:30 | 4.68740 | 100.85787 | 22292 ft | 437 kts | 169° |
| 2026-05-05 04:30 | 4.65771 | 100.86257 | 22603 ft | 439 kts | 169° |
| 2026-05-05 04:30 | 4.62745 | 100.86736 | 22912 ft | 441 kts | 169° |
| 2026-05-05 04:31 | 4.59702 | 100.87218 | 23226 ft | 443 kts | 169° |
| 2026-05-05 04:31 | 4.56653 | 100.87701 | 23547 ft | 445 kts | 169° |
| 2026-05-05 04:31 | 4.53591 | 100.88185 | 23847 ft | 446 kts | 169° |
| 2026-05-05 04:31 | 4.50507 | 100.88672 | 24123 ft | 448 kts | 169° |
| 2026-05-05 04:32 | 4.47415 | 100.89160 | 24386 ft | 450 kts | 169° |
| 2026-05-05 04:32 | 4.44423 | 100.89962 | 24616 ft | 450 kts | 155° |
| 2026-05-05 04:32 | 4.41595 | 100.91320 | 24891 ft | 451 kts | 152° |
| 2026-05-05 04:32 | 4.38778 | 100.92740 | 25152 ft | 453 kts | 152° |
| 2026-05-05 04:33 | 4.35962 | 100.94164 | 25400 ft | 454 kts | 152° |
| 2026-05-05 04:33 | 4.33134 | 100.95583 | 25631 ft | 456 kts | 152° |
| 2026-05-05 04:33 | 4.30287 | 100.96995 | 25889 ft | 458 kts | 153° |
| 2026-05-05 04:33 | 4.27416 | 100.98406 | 26137 ft | 459 kts | 153° |
| 2026-05-05 04:34 | 4.24537 | 100.99812 | 26355 ft | 461 kts | 153° |
| 2026-05-05 04:34 | 4.21646 | 101.01219 | 26575 ft | 463 kts | 153° |
| 2026-05-05 04:34 | 4.18775 | 101.02617 | 26795 ft | 465 kts | 153° |
| 2026-05-05 04:34 | 4.15823 | 101.04053 | 27015 ft | 466 kts | 153° |
| 2026-05-05 04:35 | 4.12936 | 101.05457 | 27203 ft | 468 kts | 153° |
| 2026-05-05 04:35 | 4.10004 | 101.06884 | 27401 ft | 469 kts | 153° |
| 2026-05-05 04:35 | 4.07063 | 101.08316 | 27612 ft | 471 kts | 153° |
| 2026-05-05 04:35 | 4.04108 | 101.09756 | 27816 ft | 472 kts | 153° |
| 2026-05-05 04:36 | 4.01146 | 101.11198 | 27991 ft | 474 kts | 153° |
| 2026-05-05 04:36 | 3.98174 | 101.12645 | 28207 ft | 475 kts | 153° |
| 2026-05-05 04:36 | 3.95192 | 101.14096 | 28434 ft | 476 kts | 153° |
| 2026-05-05 04:36 | 3.92210 | 101.15548 | 28602 ft | 478 kts | 153° |
| 2026-05-05 04:37 | 3.89250 | 101.16988 | 28761 ft | 479 kts | 153° |
| 2026-05-05 04:37 | 3.86246 | 101.18451 | 28925 ft | 480 kts | 153° |
| 2026-05-05 04:37 | 3.83239 | 101.19915 | 29090 ft | 481 kts | 153° |
| 2026-05-05 04:37 | 3.80214 | 101.21387 | 29251 ft | 483 kts | 153° |
| 2026-05-05 04:38 | 3.77188 | 101.22859 | 29488 ft | 482 kts | 153° |
| 2026-05-05 04:38 | 3.74181 | 101.24358 | 29769 ft | 481 kts | 152° |
| 2026-05-05 04:38 | 3.71217 | 101.25894 | 30047 ft | 479 kts | 152° |
| 2026-05-05 04:38 | 3.68268 | 101.27445 | 30300 ft | 479 kts | 151° |
| 2026-05-05 04:39 | 3.65316 | 101.29002 | 30543 ft | 478 kts | 152° |
| 2026-05-05 04:39 | 3.62403 | 101.30533 | 30771 ft | 478 kts | 152° |
| 2026-05-05 04:39 | 3.59453 | 101.32076 | 31027 ft | 478 kts | 152° |
| 2026-05-05 04:39 | 3.56500 | 101.33615 | 31306 ft | 477 kts | 152° |
| 2026-05-05 04:40 | 3.53559 | 101.35145 | 31598 ft | 476 kts | 152° |
| 2026-05-05 04:40 | 3.50624 | 101.36671 | 31858 ft | 475 kts | 152° |
| 2026-05-05 04:40 | 3.47714 | 101.38184 | 32070 ft | 475 kts | 152° |
| 2026-05-05 04:40 | 3.44778 | 101.39711 | 32319 ft | 475 kts | 152° |
| 2026-05-05 04:41 | 3.41857 | 101.41231 | 32604 ft | 474 kts | 152° |
| 2026-05-05 04:41 | 3.38926 | 101.42756 | 32864 ft | 473 kts | 152° |
| 2026-05-05 04:41 | 3.35996 | 101.44280 | 33116 ft | 473 kts | 152° |
| 2026-05-05 04:41 | 3.33071 | 101.45801 | 33382 ft | 472 kts | 152° |
| 2026-05-05 04:42 | 3.30141 | 101.47282 | 33668 ft | 471 kts | 154° |
| 2026-05-05 04:42 | 3.27165 | 101.48676 | 33912 ft | 471 kts | 155° |
| 2026-05-05 04:42 | 3.24215 | 101.50010 | 34169 ft | 470 kts | 155° |
| 2026-05-05 04:42 | 3.21231 | 101.51347 | 34451 ft | 469 kts | 155° |
| 2026-05-05 04:43 | 3.18249 | 101.52691 | 34734 ft | 469 kts | 155° |
| 2026-05-05 04:43 | 3.15280 | 101.54042 | 34969 ft | 469 kts | 155° |
| 2026-05-05 04:43 | 3.12309 | 101.55403 | 35212 ft | 468 kts | 155° |
| 2026-05-05 04:43 | 3.09341 | 101.56769 | 35470 ft | 468 kts | 155° |
| 2026-05-05 04:44 | 3.06391 | 101.58131 | 35732 ft | 467 kts | 154° |
| 2026-05-05 04:44 | 3.03441 | 101.59492 | 35992 ft | 466 kts | 154° |
| 2026-05-05 04:44 | 3.00538 | 101.60831 | 36206 ft | 466 kts | 154° |
| 2026-05-05 04:44 | 2.97595 | 101.62188 | 36434 ft | 466 kts | 155° |
| 2026-05-05 04:45 | 2.94659 | 101.63541 | 36700 ft | 465 kts | 154° |
| 2026-05-05 04:45 | 2.91723 | 101.64894 | 36897 ft | 463 kts | 154° |
| 2026-05-05 04:45 | 2.88797 | 101.66243 | 36883 ft | 462 kts | 155° |
| 2026-05-05 04:46 | 2.83002 | 101.68914 | 36880 ft | 454 kts | 154° |
| 2026-05-05 04:46 | 2.77269 | 101.71555 | 36888 ft | 453 kts | 154° |
| 2026-05-05 04:47 | 2.71540 | 101.74199 | 36890 ft | 453 kts | 154° |
| 2026-05-05 04:47 | 2.65894 | 101.76941 | 36869 ft | 454 kts | 153° |
| 2026-05-05 04:48 | 2.60216 | 101.79729 | 36859 ft | 454 kts | 153° |
| 2026-05-05 04:48 | 2.54706 | 101.82791 | 36859 ft | 453 kts | 142° |
| 2026-05-05 04:49 | 2.50298 | 101.87208 | 36871 ft | 452 kts | 127° |
| 2026-05-05 04:49 | 2.46544 | 101.92269 | 36872 ft | 453 kts | 126° |
| 2026-05-05 04:50 | 2.42803 | 101.97346 | 36880 ft | 453 kts | 126° |
| 2026-05-05 04:50 | 2.39025 | 102.02405 | 36886 ft | 454 kts | 126° |
| 2026-05-05 04:51 | 2.35241 | 102.07436 | 36898 ft | 455 kts | 127° |
| 2026-05-05 04:51 | 2.31430 | 102.12498 | 36904 ft | 455 kts | 127° |
| 2026-05-05 04:52 | 2.27615 | 102.17564 | 36902 ft | 455 kts | 127° |
| 2026-05-05 04:52 | 2.23828 | 102.22595 | 36906 ft | 456 kts | 127° |
| 2026-05-05 04:53 | 2.20017 | 102.27660 | 36917 ft | 455 kts | 127° |
| 2026-05-05 04:53 | 2.16213 | 102.32714 | 36921 ft | 455 kts | 127° |
| 2026-05-05 04:54 | 2.12408 | 102.37768 | 36903 ft | 454 kts | 127° |
| 2026-05-05 04:54 | 2.08602 | 102.42825 | 36899 ft | 454 kts | 127° |
| 2026-05-05 04:55 | 2.04810 | 102.47864 | 36912 ft | 453 kts | 126° |
| 2026-05-05 04:55 | 2.01020 | 102.52898 | 36899 ft | 452 kts | 127° |
| 2026-05-05 04:56 | 1.97254 | 102.57898 | 36899 ft | 452 kts | 127° |
| 2026-05-05 04:56 | 1.93479 | 102.62915 | 36905 ft | 451 kts | 127° |
| 2026-05-05 04:57 | 1.89702 | 102.67936 | 36912 ft | 451 kts | 127° |
| 2026-05-05 04:57 | 1.87812 | 102.70448 | 36652 ft | 456 kts | 126° |
| 2026-05-05 04:57 | 1.85900 | 102.72988 | 36120 ft | 456 kts | 126° |
| 2026-05-05 04:57 | 1.83994 | 102.75520 | 35458 ft | 456 kts | 126° |
| 2026-05-05 04:58 | 1.82082 | 102.78060 | 34757 ft | 457 kts | 126° |
| 2026-05-05 04:58 | 1.80189 | 102.80578 | 34052 ft | 458 kts | 126° |
| 2026-05-05 04:58 | 1.78262 | 102.83138 | 33311 ft | 460 kts | 126° |
| 2026-05-05 04:58 | 1.76338 | 102.85694 | 32664 ft | 459 kts | 126° |
| 2026-05-05 04:59 | 1.75069 | 102.87379 | 32328 ft | 456 kts | 126° |
| 2026-05-05 04:59 | 1.73244 | 102.89953 | 31787 ft | 452 kts | 120° |
| 2026-05-05 04:59 | 1.71260 | 102.93579 | 31115 ft | 446 kts | 117° |
| 2026-05-05 04:59 | 1.70294 | 102.95430 | 30758 ft | 444 kts | 117° |
| 2026-05-05 05:00 | 1.68412 | 102.99035 | 30086 ft | 439 kts | 117° |
| 2026-05-05 05:00 | 1.67453 | 103.00856 | 29750 ft | 437 kts | 117° |
| 2026-05-05 05:00 | 1.66066 | 103.03467 | 29592 ft | 424 kts | 117° |
| 2026-05-05 05:00 | 1.64692 | 103.06038 | 29399 ft | 414 kts | 117° |
| 2026-05-05 05:01 | 1.63350 | 103.08542 | 29218 ft | 403 kts | 117° |
| 2026-05-05 05:01 | 1.61994 | 103.10959 | 29035 ft | 393 kts | 124° |
| 2026-05-05 05:01 | 1.60164 | 103.12952 | 28710 ft | 389 kts | 141° |
| 2026-05-05 05:01 | 1.57952 | 103.14499 | 28340 ft | 386 kts | 145° |
| 2026-05-05 05:02 | 1.55703 | 103.15961 | 27926 ft | 384 kts | 146° |
| 2026-05-05 05:02 | 1.53463 | 103.17396 | 27526 ft | 381 kts | 146° |
| 2026-05-05 05:02 | 1.51233 | 103.18828 | 27123 ft | 379 kts | 146° |
| 2026-05-05 05:02 | 1.49031 | 103.20254 | 26723 ft | 376 kts | 146° |
| 2026-05-05 05:03 | 1.46846 | 103.21679 | 26319 ft | 374 kts | 145° |
| 2026-05-05 05:03 | 1.44701 | 103.23086 | 25929 ft | 372 kts | 145° |
| 2026-05-05 05:03 | 1.42547 | 103.24505 | 25540 ft | 370 kts | 145° |
| 2026-05-05 05:03 | 1.40401 | 103.25919 | 25146 ft | 368 kts | 145° |
| 2026-05-05 05:04 | 1.38271 | 103.27324 | 24753 ft | 365 kts | 145° |
| 2026-05-05 05:04 | 1.36154 | 103.28722 | 24363 ft | 363 kts | 145° |
| 2026-05-05 05:04 | 1.34053 | 103.30108 | 23978 ft | 360 kts | 145° |
| 2026-05-05 05:04 | 1.31990 | 103.31470 | 23589 ft | 358 kts | 145° |
| 2026-05-05 05:05 | 1.29914 | 103.32840 | 23208 ft | 356 kts | 145° |
| 2026-05-05 05:05 | 1.27856 | 103.34198 | 22834 ft | 354 kts | 145° |
| 2026-05-05 05:05 | 1.25809 | 103.35549 | 22451 ft | 352 kts | 144° |
| 2026-05-05 05:05 | 1.23769 | 103.36896 | 22070 ft | 350 kts | 144° |
| 2026-05-05 05:06 | 1.21743 | 103.38233 | 21700 ft | 348 kts | 144° |
| 2026-05-05 05:06 | 1.19718 | 103.39568 | 21313 ft | 347 kts | 144° |
| 2026-05-05 05:06 | 1.17709 | 103.40894 | 20933 ft | 345 kts | 144° |
| 2026-05-05 05:06 | 1.15737 | 103.42196 | 20580 ft | 342 kts | 144° |
| 2026-05-05 05:07 | 1.13761 | 103.43500 | 20363 ft | 336 kts | 144° |
| 2026-05-05 05:07 | 1.11834 | 103.44770 | 20198 ft | 328 kts | 144° |
| 2026-05-05 05:07 | 1.09958 | 103.46006 | 20057 ft | 319 kts | 144° |
| 2026-05-05 05:07 | 1.08130 | 103.47213 | 19925 ft | 311 kts | 144° |
| 2026-05-05 05:08 | 1.06370 | 103.48412 | 19789 ft | 301 kts | 137° |
| 2026-05-05 05:08 | 1.05122 | 103.50012 | 19683 ft | 287 kts | 113° |
| 2026-05-05 05:08 | 1.04566 | 103.51902 | 19386 ft | 283 kts | 94° |
| 2026-05-05 05:08 | 1.04622 | 103.53848 | 19149 ft | 279 kts | 84° |
| 2026-05-05 05:09 | 1.04861 | 103.55777 | 18850 ft | 279 kts | 82° |
| 2026-05-05 05:09 | 1.05127 | 103.57672 | 18559 ft | 278 kts | 82° |
| 2026-05-05 05:09 | 1.05397 | 103.59587 | 18275 ft | 277 kts | 82° |
| 2026-05-05 05:09 | 1.05660 | 103.61487 | 17996 ft | 275 kts | 82° |
| 2026-05-05 05:10 | 1.05918 | 103.63381 | 17712 ft | 274 kts | 82° |
| 2026-05-05 05:10 | 1.06170 | 103.65263 | 17428 ft | 272 kts | 82° |
| 2026-05-05 05:10 | 1.06418 | 103.67136 | 17142 ft | 271 kts | 82° |
| 2026-05-05 05:10 | 1.06663 | 103.68997 | 16862 ft | 269 kts | 82° |
| 2026-05-05 05:11 | 1.06902 | 103.70824 | 16582 ft | 268 kts | 82° |
| 2026-05-05 05:11 | 1.07144 | 103.72671 | 16302 ft | 267 kts | 82° |
| 2026-05-05 05:11 | 1.07383 | 103.74503 | 16022 ft | 265 kts | 82° |
| 2026-05-05 05:11 | 1.07621 | 103.76327 | 15746 ft | 264 kts | 82° |
| 2026-05-05 05:12 | 1.07887 | 103.78141 | 15437 ft | 263 kts | 81° |
| 2026-05-05 05:12 | 1.08053 | 103.79938 | 15170 ft | 257 kts | 86° |
| 2026-05-05 05:12 | 1.08278 | 103.81728 | 14912 ft | 262 kts | 77° |
| 2026-05-05 05:12 | 1.08618 | 103.83535 | 14643 ft | 266 kts | 82° |
| 2026-05-05 05:13 | 1.08848 | 103.85395 | 14374 ft | 273 kts | 83° |
| 2026-05-05 05:13 | 1.09073 | 103.87269 | 14075 ft | 275 kts | 83° |
| 2026-05-05 05:13 | 1.09318 | 103.89162 | 13752 ft | 275 kts | 81° |
| 2026-05-05 05:13 | 1.09644 | 103.91053 | 13435 ft | 276 kts | 80° |
| 2026-05-05 05:14 | 1.09980 | 103.92956 | 13151 ft | 277 kts | 79° |
| 2026-05-05 05:14 | 1.10365 | 103.94858 | 12875 ft | 279 kts | 81° |
| 2026-05-05 05:14 | 1.10731 | 103.96770 | 12558 ft | 283 kts | 80° |
| 2026-05-05 05:14 | 1.11043 | 103.98708 | 12250 ft | 282 kts | 81° |
| 2026-05-05 05:15 | 1.11392 | 104.00632 | 11952 ft | 281 kts | 80° |
| 2026-05-05 05:15 | 1.11747 | 104.02536 | 11739 ft | 277 kts | 80° |
| 2026-05-05 05:15 | 1.12096 | 104.04424 | 11453 ft | 276 kts | 80° |
| 2026-05-05 05:15 | 1.12450 | 104.06293 | 11197 ft | 272 kts | 78° |
| 2026-05-05 05:16 | 1.12825 | 104.08132 | 10891 ft | 270 kts | 80° |
| 2026-05-05 05:16 | 1.13094 | 104.09977 | 10601 ft | 264 kts | 83° |
| 2026-05-05 05:16 | 1.13426 | 104.11755 | 10335 ft | 263 kts | 70° |
| 2026-05-05 05:16 | 1.14402 | 104.13278 | 10076 ft | 262 kts | 43° |
| 2026-05-05 05:17 | 1.15916 | 104.14258 | 9827 ft | 259 kts | 24° |
| 2026-05-05 05:17 | 1.17570 | 104.14967 | 9568 ft | 258 kts | 22° |
| 2026-05-05 05:17 | 1.19227 | 104.15652 | 9297 ft | 257 kts | 22° |
| 2026-05-05 05:17 | 1.20879 | 104.16337 | 9033 ft | 258 kts | 22° |
| 2026-05-05 05:18 | 1.22533 | 104.17029 | 8757 ft | 257 kts | 22° |
| 2026-05-05 05:18 | 1.24184 | 104.17723 | 8504 ft | 259 kts | 22° |
| 2026-05-05 05:18 | 1.25856 | 104.18433 | 8223 ft | 261 kts | 23° |
| 2026-05-05 05:18 | 1.27537 | 104.19139 | 7940 ft | 262 kts | 23° |
| 2026-05-05 05:19 | 1.29213 | 104.19852 | 7668 ft | 261 kts | 23° |
| 2026-05-05 05:19 | 1.30850 | 104.20579 | 7407 ft | 264 kts | 24° |
| 2026-05-05 05:19 | 1.32570 | 104.21169 | 7091 ft | 262 kts | 6° |
| 2026-05-05 05:19 | 1.34387 | 104.21067 | 6754 ft | 263 kts | 347° |
| 2026-05-05 05:20 | 1.36173 | 104.20663 | 6470 ft | 261 kts | 347° |
| 2026-05-05 05:20 | 1.37936 | 104.20269 | 6197 ft | 257 kts | 347° |
| 2026-05-05 05:20 | 1.39677 | 104.19888 | 5922 ft | 256 kts | 347° |
| 2026-05-05 05:20 | 1.41399 | 104.19513 | 5645 ft | 251 kts | 347° |
| 2026-05-05 05:21 | 1.43093 | 104.19143 | 5382 ft | 247 kts | 347° |
| 2026-05-05 05:21 | 1.44756 | 104.18779 | 5165 ft | 242 kts | 347° |
| 2026-05-05 05:21 | 1.46362 | 104.18436 | 5062 ft | 230 kts | 347° |
| 2026-05-05 05:21 | 1.47913 | 104.18135 | 4972 ft | 226 kts | 349° |
| 2026-05-05 05:22 | 1.49465 | 104.17806 | 4769 ft | 230 kts | 346° |
| 2026-05-05 05:22 | 1.50871 | 104.17077 | 4535 ft | 230 kts | 314° |
| 2026-05-05 05:22 | 1.51642 | 104.15759 | 4324 ft | 221 kts | 282° |
| 2026-05-05 05:22 | 1.51661 | 104.14258 | 4093 ft | 214 kts | 260° |
| 2026-05-05 05:23 | 1.51359 | 104.12826 | 3851 ft | 208 kts | 256° |
| 2026-05-05 05:23 | 1.51031 | 104.11428 | 3628 ft | 204 kts | 256° |
| 2026-05-05 05:23 | 1.50709 | 104.10048 | 3412 ft | 204 kts | 256° |
| 2026-05-05 05:23 | 1.50392 | 104.08670 | 3199 ft | 203 kts | 256° |
| 2026-05-05 05:24 | 1.50083 | 104.07300 | 3001 ft | 201 kts | 256° |
| 2026-05-05 05:24 | 1.49781 | 104.05947 | 2800 ft | 199 kts | 256° |
| 2026-05-05 05:24 | 1.49409 | 104.04638 | 2565 ft | 198 kts | 239° |
| 2026-05-05 05:24 | 1.48420 | 104.03754 | 2436 ft | 191 kts | 210° |
| 2026-05-05 05:25 | 1.47262 | 104.03095 | 2083 ft | 188 kts | 207° |
| 2026-05-05 05:25 | 1.46143 | 104.02499 | 1822 ft | 178 kts | 202° |
| 2026-05-05 05:25 | 1.45005 | 104.02028 | 1614 ft | 176 kts | 201° |
| 2026-05-05 05:25 | 1.43907 | 104.01568 | 1368 ft | 166 kts | 202° |
| 2026-05-05 05:26 | 1.42871 | 104.01127 | 1149 ft | 157 kts | 202° |
| 2026-05-05 05:26 | 1.41897 | 104.00713 | 990 ft | 150 kts | 202° |
| 2026-05-05 05:26 | 1.40924 | 104.00316 | 843 ft | 150 kts | 199° |
| 2026-05-05 05:26 | 1.39935 | 103.99910 | 568 ft | 151 kts | 203° |
| 2026-05-05 05:27 | 1.38997 | 103.99489 | 353 ft | 148 kts | 205° |
| 2026-05-05 05:27 | 1.38050 | 103.99086 | 156 ft | 153 kts | 201° |
| 2026-05-05 05:27 | 1.36273 | 103.98333 | 24 ft | 93 kts | 202° |
| 2026-05-05 05:28 | 1.35875 | 103.98166 | 26 ft | 31 kts | 202° |
| 2026-05-05 05:28 | 1.35698 | 103.98113 | 23 ft | 30 kts | 184° |
| 2026-05-05 05:28 | 1.35524 | 103.98126 | 25 ft | 21 kts | 174° |
| 2026-05-05 05:28 | 1.35407 | 103.98138 | 26 ft | 15 kts | 174° |
| 2026-05-05 05:29 | 1.35313 | 103.98120 | 23 ft | 14 kts | 202° |
| 2026-05-05 05:29 | 1.35228 | 103.98085 | 27 ft | 13 kts | 202° |
| 2026-05-05 05:29 | 1.35146 | 103.98051 | 23 ft | 13 kts | 202° |
| 2026-05-05 05:29 | 1.35066 | 103.98018 | 26 ft | 12 kts | 204° |
| 2026-05-05 05:30 | 1.34989 | 103.97983 | 23 ft | 12 kts | 202° |
| 2026-05-05 05:30 | 1.34911 | 103.97951 | 23 ft | 13 kts | 202° |
| 2026-05-05 05:30 | 1.34831 | 103.97961 | 24 ft | 13 kts | 125° |
| 2026-05-05 05:30 | 1.34795 | 103.98040 | 26 ft | 12 kts | 114° |
| 2026-05-05 05:31 | 1.34761 | 103.98118 | 24 ft | 13 kts | 112° |
| 2026-05-05 05:31 | 1.34722 | 103.98210 | 23 ft | 16 kts | 113° |
| 2026-05-05 05:31 | 1.34675 | 103.98321 | 23 ft | 18 kts | 112° |
| 2026-05-05 05:31 | 1.34626 | 103.98438 | 23 ft | 18 kts | 112° |
| 2026-05-05 05:32 | 1.34579 | 103.98550 | 23 ft | 17 kts | 114° |
| 2026-05-05 05:32 | 1.34532 | 103.98661 | 26 ft | 17 kts | 112° |
| 2026-05-05 05:32 | 1.34491 | 103.98757 | 27 ft | 14 kts | 113° |
| 2026-05-05 05:32 | 1.34456 | 103.98841 | 23 ft | 12 kts | 113° |
| 2026-05-05 05:33 | 1.34427 | 103.98916 | 26 ft | 11 kts | 97° |
| 2026-05-05 05:33 | 1.34469 | 103.98968 | 26 ft | 10 kts | 26° |
| 2026-05-05 05:33 | 1.34531 | 103.98995 | 26 ft | 9 kts | 23° |
| 2026-05-05 05:33 | 1.34589 | 103.99019 | 28 ft | 9 kts | 21° |
| 2026-05-05 05:34 | 1.34645 | 103.99041 | 25 ft | 8 kts | 22° |
| 2026-05-05 05:34 | 1.34697 | 103.99063 | 27 ft | 8 kts | 24° |
| 2026-05-05 05:34 | 1.34746 | 103.99070 | 23 ft | 7 kts | 336° |
| 2026-05-05 05:34 | 1.34774 | 103.99038 | 23 ft | 6 kts | 310° |
| 2026-05-05 05:35 | 1.34807 | 103.99022 | 23 ft | 5 kts | 358° |
| 2026-05-05 05:35 | 1.34839 | 103.99028 | 23 ft | 5 kts | 7° |
| 2026-05-05 05:35 | 1.34875 | 103.99029 | 26 ft | 6 kts | 358° |
| 2026-05-05 05:35 | 1.34923 | 103.99048 | 27 ft | 9 kts | 38° |
| 2026-05-05 05:36 | 1.34967 | 103.99086 | 24 ft | 6 kts | 41° |
| 2026-05-05 05:36 | 1.34988 | 103.99105 | 23 ft | 2 kts | 41° |
| 2026-05-05 05:36 | 1.34991 | 103.99108 | 23 ft | 0 kts | 42° |